Time;durP1;ratioP1;P1;durP2;ratioP2;P2;SDS_P1;SDS_P2;PMS_P1;PMS_P2;Temp;Humidity;BMP_temperature;BMP_pressure;BME280_temperature;BME280_humidity;BME280_pressure;Samples;Min_cycle;Max_cycle;Signal;HPM_P1;HPM_P2
2024/02/27 00:01:09;;;;;;;162.02;71.85;;;;;;;29.65;67.82;101105.13;5042565;28;70440;-36
2024/02/27 00:03:39;;;;;;;157.45;67.55;;;;;;;29.69;67.85;101106.38;5041496;28;67402;-33
2024/02/27 00:06:10;;;;;;;148.85;63.80;;;;;;;29.73;68.52;101107.63;5043658;28;70474;-36
2024/02/27 00:08:41;;;;;;;139.55;59.30;;;;;;;29.56;69.71;101079.28;5048030;28;66322;-38
2024/02/27 00:11:13;;;;;;;119.50;53.90;;;;;;;29.81;69.27;101117.41;5051374;28;70171;-36
2024/02/27 00:13:44;;;;;;;114.82;50.97;;;;;;;29.78;69.51;101110.56;5041791;28;66291;-35
2024/02/27 00:16:18;;;;;;;94.85;40.05;;;;;;;29.82;71.60;101122.59;5041939;28;70132;-35
2024/02/27 00:18:49;;;;;;;81.25;35.65;;;;;;;29.86;70.55;101122.19;5045655;28;66342;-34
2024/02/27 00:21:20;;;;;;;87.07;33.95;;;;;;;29.89;70.59;101130.72;5043328;28;69971;-34
2024/02/27 00:23:51;;;;;;;65.38;32.33;;;;;;;29.99;71.60;101138.44;5043818;28;65690;-35
2024/02/27 00:26:23;;;;;;;67.50;30.50;;;;;;;29.95;70.42;101137.16;5053134;28;69939;-33
2024/02/27 00:28:54;;;;;;;57.10;29.10;;;;;;;30.01;71.51;101148.00;5042599;28;66737;-34
2024/02/27 00:31:24;;;;;;;72.13;29.10;;;;;;;30.00;71.38;101145.50;5041033;28;69836;-34
2024/02/27 00:33:55;;;;;;;65.30;28.73;;;;;;;30.00;71.11;101148.19;5047855;28;66851;-35
2024/02/27 00:36:26;;;;;;;47.45;26.50;;;;;;;30.03;71.35;101147.78;5049917;28;70015;-32
2024/02/27 00:38:56;;;;;;;49.92;25.92;;;;;;;30.03;69.97;101159.47;5053045;28;66680;-36
2024/02/27 00:41:27;;;;;;;39.95;22.45;;;;;;;30.11;69.03;101163.81;5048433;28;70276;-34
2024/02/27 00:43:58;;;;;;;37.35;21.30;;;;;;;30.15;68.46;101156.94;5048250;28;66242;-31
2024/02/27 00:46:28;;;;;;;34.65;19.65;;;;;;;30.20;68.14;101162.56;5041916;28;69958;-31
2024/02/27 00:48:58;;;;;;;29.27;18.58;;;;;;;30.23;67.69;101167.59;5054936;28;66707;-31
2024/02/27 00:51:29;;;;;;;25.38;16.80;;;;;;;30.25;67.85;101176.31;5047433;28;69997;-31
2024/02/27 00:54:01;;;;;;;35.83;15.88;;;;;;;30.25;68.22;101176.31;5046039;28;65401;-31
2024/02/27 00:56:32;;;;;;;35.50;15.18;;;;;;;30.28;68.34;101173.22;5045053;28;70172;-30
2024/02/27 00:59:02;;;;;;;24.42;14.95;;;;;;;30.30;68.41;101172.16;5046162;28;66400;-31
2024/02/27 01:01:33;;;;;;;32.55;13.13;;;;;;;30.35;67.61;101175.06;5047563;28;69373;-30
2024/02/27 01:04:04;;;;;;;25.73;13.93;;;;;;;30.35;68.25;101181.31;5049460;28;66250;-31
2024/02/27 01:06:35;;;;;;;25.05;13.75;;;;;;;30.40;67.63;101184.22;5046856;28;70677;-33
2024/02/27 01:09:05;;;;;;;27.30;14.05;;;;;;;30.42;68.15;101192.13;5051212;28;66306;-32
2024/02/27 01:11:36;;;;;;;16.75;12.90;;;;;;;30.44;67.86;101184.63;5048855;28;70553;-31
2024/02/27 01:14:07;;;;;;;19.35;12.93;;;;;;;30.47;68.17;101190.44;5048982;28;66298;-31
2024/02/27 01:16:38;;;;;;;19.08;13.38;;;;;;;30.49;67.61;101195.66;5042248;28;69854;-30
2024/02/27 01:19:09;;;;;;;23.90;13.63;;;;;;;30.54;67.54;101197.75;5045177;28;65527;-31
2024/02/27 01:21:43;;;;;;;21.33;13.02;;;;;;;30.50;68.50;101198.16;5048169;28;69804;-30
2024/02/27 01:24:14;;;;;;;19.15;12.85;;;;;;;30.60;67.59;101205.03;5048328;28;65802;-31
2024/02/27 01:26:45;;;;;;;20.27;13.13;;;;;;;30.61;67.40;101212.91;5044758;28;70912;-30
2024/02/27 01:29:16;;;;;;;14.25;12.05;;;;;;;30.63;67.15;101213.56;5047837;28;65624;-30
2024/02/27 01:31:46;;;;;;;15.00;11.93;;;;;;;30.66;67.79;101207.72;5044603;28;69949;-31
2024/02/27 01:34:17;;;;;;;16.77;11.90;;;;;;;30.67;67.46;101225.66;5047919;28;65750;-31
2024/02/27 01:36:48;;;;;;;17.65;12.10;;;;;;;30.70;67.48;101227.94;5046231;28;70139;-31
2024/02/27 01:39:19;;;;;;;15.82;11.20;;;;;;;30.72;67.44;101225.00;5043238;28;65596;-30
2024/02/27 01:41:50;;;;;;;20.65;11.55;;;;;;;30.71;67.38;101213.34;5054240;28;70256;-31
2024/02/27 01:44:20;;;;;;;13.95;11.32;;;;;;;30.77;67.24;101227.91;5054794;28;66081;-33
2024/02/27 01:46:51;;;;;;;17.15;10.93;;;;;;;30.80;67.12;101227.50;5047251;28;70518;-31
2024/02/27 01:49:26;;;;;;;14.60;10.50;;;;;;;30.84;66.97;101227.91;5050034;28;67183;-31
2024/02/27 01:51:58;;;;;;;13.68;10.68;;;;;;;30.86;66.70;101234.78;5045613;28;70194;-31
2024/02/27 01:54:28;;;;;;;12.43;10.80;;;;;;;30.72;66.62;101204.16;5041565;28;66184;-30
2024/02/27 01:56:59;;;;;;;12.43;10.32;;;;;;;30.91;67.08;101234.16;5056137;28;69987;-31
2024/02/27 01:59:31;;;;;;;14.67;10.67;;;;;;;30.93;66.44;101238.31;5051957;28;66491;-32
2024/02/27 02:02:02;;;;;;;11.40;10.10;;;;;;;30.86;66.62;101215.00;5045105;28;70948;-31
2024/02/27 02:04:35;;;;;;;15.15;10.18;;;;;;;30.95;66.45;101235.38;5051930;28;66675;-31
2024/02/27 02:07:06;;;;;;;11.50;9.68;;;;;;;31.01;66.35;101234.56;5052870;28;70454;-31
2024/02/27 02:09:37;;;;;;;11.40;10.20;;;;;;;31.03;66.47;101248.69;5043215;28;66685;-31
2024/02/27 02:12:08;;;;;;;12.70;10.45;;;;;;;31.07;66.17;101231.00;5052645;28;69593;-30
2024/02/27 02:14:38;;;;;;;10.70;9.60;;;;;;;31.10;66.74;101233.28;5049836;28;66128;-31
2024/02/27 02:17:09;;;;;;;10.45;9.55;;;;;;;31.13;66.37;101232.84;5042683;28;70447;-31
2024/02/27 02:19:39;;;;;;;10.45;9.55;;;;;;;31.14;66.17;101228.25;5052410;28;66678;-33
2024/02/27 02:22:10;;;;;;;11.00;8.93;;;;;;;31.21;66.42;101228.25;5046372;28;69244;-31
2024/02/27 02:24:41;;;;;;;10.02;9.13;;;;;;;31.24;66.16;101227.81;5048645;28;66650;-32
2024/02/27 02:27:18;;;;;;;11.27;8.93;;;;;;;31.07;66.41;101201.19;5062673;28;69193;-33
2024/02/27 02:29:51;;;;;;;10.00;9.10;;;;;;;31.29;65.81;101231.53;5040092;28;66511;-31
2024/02/27 02:32:21;;;;;;;;;;;;;;;31.25;66.41;101241.13;5043664;28;70547;-32
2024/02/27 02:34:51;;;;;;;10.23;9.18;;;;;;;31.26;65.64;101222.97;5054927;28;66143;-36
2024/02/27 02:37:23;;;;;;;10.25;8.70;;;;;;;31.40;65.76;101238.19;5043865;28;69005;-31
2024/02/27 02:39:57;;;;;;;10.32;8.73;;;;;;;31.39;65.70;101231.09;5043378;28;66700;-33
2024/02/27 02:42:28;;;;;;;13.77;9.48;;;;;;;31.44;65.44;101234.00;5042545;28;69118;-31
2024/02/27 02:44:58;;;;;;;9.95;9.00;;;;;;;31.48;65.45;101235.25;5052659;28;66042;-32
2024/02/27 02:47:29;;;;;;;10.55;9.55;;;;;;;31.50;65.45;101237.72;5049822;28;70438;-32
2024/02/27 02:50:00;;;;;;;10.20;9.20;;;;;;;31.53;65.58;101232.69;5050521;28;66416;-31
2024/02/27 02:52:30;;;;;;;10.05;8.10;;;;;;;31.55;65.66;101229.78;5076221;28;69656;-34
2024/02/27 02:55:02;;;;;;;9.35;8.75;;;;;;;31.54;65.73;101217.28;5051780;28;65574;-31
2024/02/27 02:57:33;;;;;;;8.40;7.63;;;;;;;31.61;65.53;101224.31;5049606;28;70463;-32
2024/02/27 03:00:04;;;;;;;9.93;8.60;;;;;;;31.64;65.37;101217.63;5051908;28;66162;-31
2024/02/27 03:02:35;;;;;;;9.10;8.38;;;;;;;31.66;65.15;101220.94;5056729;28;70291;-31
2024/02/27 03:05:06;;;;;;;9.25;8.50;;;;;;;31.69;65.39;101219.69;5053244;28;65767;-35
2024/02/27 03:07:37;;;;;;;9.32;8.45;;;;;;;31.73;65.34;101218.19;5058662;28;70514;-32
2024/02/27 03:10:08;;;;;;;11.90;8.02;;;;;;;31.76;65.22;101205.03;5047966;28;66786;-31
2024/02/27 03:12:39;;;;;;;8.85;8.00;;;;;;;31.78;65.54;101204.81;5060383;28;69381;-31
2024/02/27 03:15:10;;;;;;;8.85;8.02;;;;;;;31.79;65.06;101201.88;5050693;28;66486;-35
2024/02/27 03:17:41;;;;;;;11.93;8.20;;;;;;;31.85;65.15;101205.59;5055213;28;69770;-35
2024/02/27 03:20:12;;;;;;;8.75;8.00;;;;;;;31.87;65.00;101195.34;5050976;28;66266;-30
2024/02/27 03:22:43;;;;;;;10.05;8.18;;;;;;;31.89;65.03;101187.81;5053968;28;70147;-32
2024/02/27 03:25:13;;;;;;;8.35;7.65;;;;;;;31.78;64.93;101164.13;5053611;28;66136;-35
2024/02/27 03:27:45;;;;;;;9.20;7.75;;;;;;;31.95;65.06;101181.53;5052125;28;70387;-32
2024/02/27 03:30:18;;;;;;;8.82;7.47;;;;;;;31.99;65.08;101179.25;5055483;28;65170;-32
2024/02/27 03:32:49;;;;;;;8.88;7.97;;;;;;;32.01;64.86;101175.25;5046350;28;70617;-33
2024/02/27 03:35:19;;;;;;;9.07;8.18;;;;;;;32.05;64.94;101175.63;5051715;28;66539;-32
2024/02/27 03:37:50;;;;;;;8.30;7.60;;;;;;;32.07;64.79;101167.25;5063839;28;70522;-32
2024/02/27 03:40:21;;;;;;;8.23;7.50;;;;;;;32.09;64.55;101159.72;5059000;28;65465;-32
2024/02/27 03:42:51;;;;;;;10.10;7.35;;;;;;;32.10;64.77;101147.84;5063638;28;69423;-31
2024/02/27 03:45:22;;;;;;;12.05;7.38;;;;;;;32.16;64.49;101163.22;5057285;28;65528;-31
2024/02/27 03:47:53;;;;;;;9.73;7.68;;;;;;;32.17;64.71;101157.56;5055664;28;70280;-33
2024/02/27 03:50:24;;;;;;;7.15;6.55;;;;;;;32.20;64.70;101154.41;5057286;28;66909;-31
2024/02/27 03:52:54;;;;;;;7.15;6.57;;;;;;;32.23;64.49;101139.56;5056449;28;69414;-31
2024/02/27 03:55:25;;;;;;;8.05;7.38;;;;;;;32.26;64.44;101139.09;5037558;28;65797;-33
2024/02/27 03:57:55;;;;;;;8.25;7.53;;;;;;;32.28;64.58;101142.44;5048893;28;70319;-31
2024/02/27 04:00:26;;;;;;;7.45;6.85;;;;;;;32.32;64.57;101131.94;5047988;28;65510;-32
2024/02/27 04:02:57;;;;;;;7.95;7.10;;;;;;;32.33;64.58;101136.34;5052241;28;69587;-31
2024/02/27 04:05:28;;;;;;;7.07;6.47;;;;;;;32.36;64.36;101128.56;5048860;28;65519;-33
2024/02/27 04:07:58;;;;;;;7.70;6.97;;;;;;;32.38;64.48;101122.94;5048246;28;70145;-32
2024/02/27 04:10:29;;;;;;;8.20;7.35;;;;;;;32.39;64.25;101127.28;5049665;28;66157;-31
2024/02/27 04:13:00;;;;;;;7.05;6.45;;;;;;;32.44;64.37;101128.28;5058712;28;70407;-32
2024/02/27 04:15:31;;;;;;;6.78;6.28;;;;;;;32.41;64.55;101117.88;5054200;28;66901;-32
2024/02/27 04:18:03;;;;;;;7.10;6.18;;;;;;;32.44;64.34;101112.00;5054302;28;70875;-32
2024/02/27 04:20:34;;;;;;;7.05;6.53;;;;;;;32.51;64.33;101114.66;5056635;28;66571;-32
2024/02/27 04:23:04;;;;;;;6.43;5.93;;;;;;;32.56;64.27;101105.84;5046532;28;69584;-33
2024/02/27 04:25:36;;;;;;;7.18;6.65;;;;;;;32.55;64.06;101093.31;5043144;28;66258;-34
2024/02/27 04:28:08;;;;;;;7.03;6.20;;;;;;;32.60;64.13;101097.03;5053252;28;70010;-33
2024/02/27 04:30:38;;;;;;;7.05;6.20;;;;;;;32.61;64.28;101092.41;5065867;27;66315;-31
2024/02/27 04:33:09;;;;;;;6.65;6.15;;;;;;;32.68;63.88;101098.56;5052433;28;70771;-31
2024/02/27 04:35:40;;;;;;;6.43;5.83;;;;;;;32.68;64.09;101087.72;5050911;28;66430;-31
2024/02/27 04:38:11;;;;;;;6.60;6.05;;;;;;;32.70;64.11;101080.16;5055494;28;69563;-31
2024/02/27 04:40:42;;;;;;;5.97;5.45;;;;;;;32.75;63.90;101068.63;5047960;28;66515;-31
2024/02/27 04:43:12;;;;;;;7.00;6.05;;;;;;;32.58;63.92;101033.94;5052155;28;70517;-31
2024/02/27 04:45:43;;;;;;;8.00;5.97;;;;;;;32.83;63.79;101063.72;5052760;28;66483;-32
2024/02/27 04:48:14;;;;;;;6.57;6.07;;;;;;;32.86;63.72;101052.38;5059551;28;69876;-35
2024/02/27 04:50:45;;;;;;;7.73;5.80;;;;;;;32.86;63.77;101052.38;5056644;28;66691;-32
2024/02/27 04:53:16;;;;;;;6.35;5.75;;;;;;;32.88;63.70;101054.88;5051612;28;69371;-33
2024/02/27 04:55:47;;;;;;;5.97;5.57;;;;;;;32.90;63.92;101042.72;5048058;28;65530;-32
2024/02/27 04:58:17;;;;;;;5.32;5.03;;;;;;;32.92;63.90;101045.19;5056190;28;70160;-34
2024/02/27 05:00:48;;;;;;;5.68;5.15;;;;;;;32.93;63.66;101039.53;5043796;28;66336;-32
2024/02/27 05:03:19;;;;;;;5.53;5.13;;;;;;;32.98;63.52;101036.13;5049893;28;70475;-31
2024/02/27 05:05:50;;;;;;;6.15;5.35;;;;;;;33.01;63.64;101038.41;5075435;28;66474;-31
2024/02/27 05:08:20;;;;;;;6.45;5.72;;;;;;;33.02;63.55;101017.50;5048732;28;70631;-31
2024/02/27 05:10:51;;;;;;;5.60;5.10;;;;;;;33.07;63.62;101014.91;5044944;28;65308;-33
2024/02/27 05:13:21;;;;;;;9.05;5.45;;;;;;;33.07;63.58;101014.91;5057827;28;69602;-32
2024/02/27 05:15:52;;;;;;;5.90;5.40;;;;;;;33.07;63.44;101012.19;5047394;28;64474;-31
2024/02/27 05:18:23;;;;;;;5.43;5.03;;;;;;;33.09;63.37;101000.03;5069681;28;71492;-31
2024/02/27 05:20:54;;;;;;;6.57;5.97;;;;;;;33.00;63.60;100976.97;5046368;28;66425;-32
2024/02/27 05:23:24;;;;;;;6.40;5.35;;;;;;;33.15;63.33;100995.53;5038678;28;69733;-31
2024/02/27 05:25:55;;;;;;;5.70;5.07;;;;;;;33.18;63.30;100981.47;5056256;28;65616;-32
2024/02/27 05:28:26;;;;;;;5.10;4.70;;;;;;;33.21;63.41;100980.19;5039908;28;70309;-33
2024/02/27 05:30:57;;;;;;;6.00;5.40;;;;;;;33.23;63.51;100978.91;5047810;28;66334;-32
2024/02/27 05:33:27;;;;;;;5.15;4.85;;;;;;;33.25;63.55;100974.06;5050938;28;70392;-31
2024/02/27 05:35:58;;;;;;;5.63;5.22;;;;;;;33.27;63.15;100965.69;5047616;28;66364;-31
2024/02/27 05:38:29;;;;;;;5.45;4.97;;;;;;;33.30;63.41;100955.16;5042740;28;69517;-32
2024/02/27 05:40:59;;;;;;;5.55;5.07;;;;;;;33.32;63.19;100953.03;5044774;28;66119;-32
2024/02/27 05:43:30;;;;;;;5.07;4.68;;;;;;;33.35;63.12;100957.19;5057234;28;70401;-32
2024/02/27 05:46:00;;;;;;;8.55;4.68;;;;;;;33.36;63.18;100947.94;5053889;28;66642;-32
2024/02/27 05:48:34;;;;;;;4.82;4.53;;;;;;;33.38;63.01;100940.41;5045228;28;70572;-32
2024/02/27 05:51:06;;;;;;;4.72;4.43;;;;;;;33.42;63.33;100940.75;5047678;27;67142;-32
2024/02/27 05:53:36;;;;;;;;;;;;;;;33.34;63.07;100931.84;5047163;28;71085;-33
2024/02/27 05:56:07;;;;;;;5.20;4.80;;;;;;;33.48;62.83;100928.91;5043633;27;67055;-34
2024/02/27 05:58:37;;;;;;;4.23;3.93;;;;;;;33.49;62.84;100922.41;5046244;28;70229;-32
2024/02/27 06:01:08;;;;;;;4.60;4.30;;;;;;;33.52;62.85;100919.22;5049716;28;65734;-34
2024/02/27 06:03:40;;;;;;;4.63;4.23;;;;;;;33.50;63.01;100905.03;5045086;28;70039;-33
2024/02/27 06:06:12;;;;;;;4.90;4.57;;;;;;;33.54;62.86;100904.38;5054642;28;66502;-35
2024/02/27 06:08:43;;;;;;;4.78;4.30;;;;;;;33.59;62.88;100893.56;5058516;28;69832;-36
2024/02/27 06:11:13;;;;;;;4.80;4.28;;;;;;;33.60;62.65;100894.44;5049464;28;66224;-32
2024/02/27 06:13:44;;;;;;;5.15;4.20;;;;;;;33.63;62.65;100891.22;5060202;28;69991;-31
2024/02/27 06:16:14;;;;;;;4.70;4.40;;;;;;;33.64;62.70;100889.31;5058141;28;66057;-32
2024/02/27 06:18:47;;;;;;;4.40;4.10;;;;;;;33.65;62.96;100890.97;5050755;28;70298;-31
2024/02/27 06:24:07;;;;;;;4.47;4.18;;;;;;;33.69;62.74;100876.66;5048303;28;70371;-32
2024/02/27 06:26:37;;;;;;;4.45;4.15;;;;;;;33.71;62.67;100874.53;5052014;28;66830;-32
2024/02/27 06:29:09;;;;;;;4.35;4.05;;;;;;;33.71;62.61;100874.53;5050749;28;70095;-32
2024/02/27 06:31:40;;;;;;;4.60;4.05;;;;;;;33.75;62.81;100867.53;5053475;28;66342;-33
2024/02/27 06:34:10;;;;;;;4.50;4.20;;;;;;;33.78;62.62;100858.88;5060668;28;71059;-32
2024/02/27 06:36:41;;;;;;;4.00;3.70;;;;;;;33.80;62.57;100856.75;5059983;28;65937;-35
2024/02/27 06:39:12;;;;;;;4.93;4.50;;;;;;;33.86;62.37;100854.97;5058884;28;69813;-36
2024/02/27 06:41:51;;;;;;;4.28;3.78;;;;;;;33.90;62.49;100847.13;5060062;28;65022;-34
2024/02/27 06:44:23;;;;;;;3.60;3.30;;;;;;;33.95;62.09;100836.34;5059082;28;70089;-32
2024/02/27 06:46:55;;;;;;;6.95;4.13;;;;;;;33.95;62.25;100842.63;5060154;28;65609;-32
2024/02/27 06:49:26;;;;;;;3.92;3.63;;;;;;;34.00;62.41;100839.19;5054641;28;69453;-33
2024/02/27 06:51:56;;;;;;;4.15;3.85;;;;;;;34.03;62.16;100822.38;5053471;28;66313;-33
2024/02/27 06:54:27;;;;;;;3.47;3.25;;;;;;;34.06;62.10;100819.19;5064101;28;70526;-32
2024/02/27 06:56:58;;;;;;;4.07;3.77;;;;;;;34.05;62.61;100812.09;5055591;28;66243;-35
2024/02/27 06:59:29;;;;;;;6.13;4.55;;;;;;;34.15;62.20;100816.88;5050312;28;70301;-31
2024/02/27 07:02:00;;;;;;;4.30;3.90;;;;;;;34.16;62.33;100811.22;5067757;28;65938;-31
2024/02/27 07:04:31;;;;;;;4.43;4.13;;;;;;;34.19;62.31;100799.84;5060745;28;69996;-36
2024/02/27 07:07:03;;;;;;;4.15;3.70;;;;;;;34.24;62.11;100794.47;5051926;28;66317;-32
2024/02/27 07:09:34;;;;;;;4.30;3.92;;;;;;;34.26;61.88;100783.31;5047706;28;69497;-32
2024/02/27 07:12:05;;;;;;;4.22;3.92;;;;;;;34.28;62.17;100781.19;5051183;28;66237;-32
2024/02/27 07:14:41;;;;;;;4.00;3.63;;;;;;;34.33;61.63;100783.19;5054199;28;69368;-33
2024/02/27 07:17:12;;;;;;;4.13;3.83;;;;;;;34.35;62.13;100791.91;5050797;28;65315;-31
2024/02/27 07:19:44;;;;;;;4.80;3.67;;;;;;;34.39;61.71;100784.91;5051905;28;70185;-32
2024/02/27 07:22:15;;;;;;;3.88;3.60;;;;;;;34.40;62.18;100786.56;5048442;28;66101;-32
2024/02/27 07:24:47;;;;;;;4.47;4.18;;;;;;;34.43;61.86;100772.44;5069700;28;70113;-32
2024/02/27 07:27:18;;;;;;;4.05;3.75;;;;;;;34.47;62.09;100774.44;5056818;28;65743;-32
2024/02/27 07:29:50;;;;;;;4.38;3.80;;;;;;;34.51;61.58;100777.47;5070952;28;69807;-33
2024/02/27 07:32:20;;;;;;;3.90;3.60;;;;;;;34.53;62.12;100769.91;5060770;28;66619;-33
2024/02/27 07:34:51;;;;;;;4.13;3.83;;;;;;;34.58;61.78;100769.19;5060028;28;70063;-31
2024/02/27 07:37:22;;;;;;;6.00;4.22;;;;;;;34.64;61.59;100760.03;5049430;28;66286;-33
2024/02/27 07:39:53;;;;;;;5.57;4.13;;;;;;;34.65;61.89;100754.31;5057186;28;69640;-32
2024/02/27 07:42:23;;;;;;;5.00;4.50;;;;;;;34.63;62.07;100751.03;5037898;28;66129;-31
2024/02/27 07:44:55;;;;;;;4.63;4.22;;;;;;;34.69;61.69;100749.22;5060749;28;69933;-31
2024/02/27 07:47:25;;;;;;;4.40;4.05;;;;;;;34.77;61.82;100756.09;5054688;28;66188;-31
2024/02/27 07:49:57;;;;;;;5.28;3.90;;;;;;;34.82;62.19;100759.72;5052153;28;70260;-34
2024/02/27 07:52:28;;;;;;;4.25;3.85;;;;;;;34.81;61.92;100747.19;5048327;28;66338;-32
2024/02/27 07:54:58;;;;;;;3.88;3.58;;;;;;;34.86;62.28;100735.56;5053792;28;70144;-32
2024/02/27 07:57:29;;;;;;;6.83;3.87;;;;;;;34.93;62.03;100725.28;5054648;28;66624;-32
2024/02/27 08:00:00;;;;;;;5.40;3.63;;;;;;;34.99;62.26;100737.88;5050895;28;69904;-31
2024/02/27 08:02:35;;;;;;;5.07;4.55;;;;;;;35.02;61.82;100734.69;5047682;28;66077;-32
2024/02/27 08:05:06;;;;;;;4.40;4.10;;;;;;;35.03;61.97;100728.16;5043890;28;69403;-32
2024/02/27 08:07:37;;;;;;;5.43;4.40;;;;;;;35.07;61.93;100718.41;5053871;28;66308;-32
2024/02/27 08:10:08;;;;;;;4.37;3.97;;;;;;;35.16;61.77;100712.50;5058826;28;69420;-35
2024/02/27 08:12:39;;;;;;;5.05;4.20;;;;;;;35.19;62.04;100720.19;5042620;28;66380;-32
2024/02/27 08:15:10;;;;;;;7.60;4.13;;;;;;;35.23;62.39;100713.16;5043035;28;70809;-32
2024/02/27 08:17:42;;;;;;;6.87;3.43;;;;;;;35.23;61.89;100715.88;5058233;28;65897;-32
2024/02/27 08:20:13;;;;;;;3.80;3.50;;;;;;;35.25;62.37;100724.66;5049897;28;69222;-31
2024/02/27 08:22:44;;;;;;;5.80;4.10;;;;;;;35.31;62.38;100729.06;5057005;28;65583;-32
2024/02/27 08:25:15;;;;;;;5.40;3.80;;;;;;;35.33;61.95;100726.94;5052259;28;69891;-32
2024/02/27 08:27:46;;;;;;;4.07;3.67;;;;;;;35.36;62.42;100726.41;5049141;28;66135;-32
2024/02/27 08:30:18;;;;;;;5.90;3.80;;;;;;;35.43;62.45;100720.75;5053853;28;69984;-32
2024/02/27 08:32:49;;;;;;;5.80;3.95;;;;;;;35.45;61.92;100711.22;5040860;28;66334;-32
2024/02/27 08:35:23;;;;;;;6.35;3.92;;;;;;;35.52;62.21;100720.06;5043307;28;70527;-32
2024/02/27 08:37:54;;;;;;;5.15;4.55;;;;;;;35.50;61.98;100716.75;5049588;28;66114;-31
2024/02/27 08:40:28;;;;;;;8.05;4.65;;;;;;;35.54;61.87;100726.06;5056954;28;69605;-32
2024/02/27 08:42:59;;;;;;;6.03;3.75;;;;;;;35.56;61.83;100736.75;5050144;28;66394;-31
2024/02/27 08:45:30;;;;;;;4.90;3.67;;;;;;;35.53;62.43;100720.88;5047162;28;69774;-32
2024/02/27 08:48:03;;;;;;;10.40;3.83;;;;;;;35.62;62.25;100719.34;5057140;28;66146;-33
2024/02/27 08:50:34;;;;;;;4.85;3.85;;;;;;;35.54;61.60;100706.97;5046912;28;69758;-33
2024/02/27 08:53:04;;;;;;;3.70;3.40;;;;;;;35.70;62.06;100731.72;5048216;28;65483;-32
2024/02/27 08:55:35;;;;;;;5.15;3.85;;;;;;;35.71;61.67;100736.09;5052239;28;70226;-32
2024/02/27 08:58:07;;;;;;;4.67;3.97;;;;;;;35.79;61.54;100741.09;5059883;28;66286;-34
2024/02/27 09:00:38;;;;;;;8.23;4.55;;;;;;;35.75;61.74;100723.59;5046525;28;69196;-34
2024/02/27 09:03:08;;;;;;;4.22;3.83;;;;;;;35.81;62.08;100725.28;5055424;28;66009;-33
2024/02/27 09:05:42;;;;;;;4.75;3.80;;;;;;;35.82;61.38;100723.38;5049534;28;70155;-33
2024/02/27 09:08:15;;;;;;;4.45;4.05;;;;;;;35.80;61.70;100732.66;5054407;28;65406;-32
2024/02/27 09:10:46;;;;;;;4.45;4.05;;;;;;;35.84;62.02;100749.34;5047673;28;68811;-33
2024/02/27 09:13:17;;;;;;;8.30;4.10;;;;;;;35.84;62.08;100749.34;5056630;28;66099;-32
2024/02/27 09:15:48;;;;;;;5.53;4.50;;;;;;;35.81;62.02;100738.94;5039348;28;71098;-37
2024/02/27 09:18:19;;;;;;;5.05;4.55;;;;;;;35.85;61.96;100745.50;5041368;28;67214;-32
2024/02/27 09:20:50;;;;;;;10.95;5.53;;;;;;;35.66;62.50;100722.38;5046909;28;70678;-32
2024/02/27 09:23:20;;;;;;;11.48;5.95;;;;;;;35.73;63.73;100742.94;5054621;28;66352;-34
2024/02/27 09:25:51;;;;;;;16.20;6.13;;;;;;;35.75;63.77;100729.06;5048696;28;70392;-32
2024/02/27 09:28:22;;;;;;;13.07;5.97;;;;;;;35.69;63.50;100730.06;5058315;28;65763;-32
2024/02/27 09:30:53;;;;;;;9.70;5.97;;;;;;;35.69;63.73;100736.38;5058028;28;69485;-33
2024/02/27 09:33:24;;;;;;;15.63;6.13;;;;;;;35.66;64.14;100731.44;5047150;28;65474;-32
2024/02/27 09:35:54;;;;;;;12.05;6.50;;;;;;;35.64;64.21;100733.56;5053348;28;70262;-33
2024/02/27 09:38:25;;;;;;;8.90;6.22;;;;;;;35.53;64.46;100727.16;5053221;28;66381;-32
2024/02/27 09:41:01;;;;;;;11.90;6.22;;;;;;;35.47;64.48;100717.28;5055324;28;69603;-31
2024/02/27 09:43:32;;;;;;;17.73;6.10;;;;;;;35.63;64.06;100740.09;5046636;28;66269;-32
2024/02/27 09:46:05;;;;;;;12.93;5.80;;;;;;;35.63;64.38;100747.47;5057185;28;70208;-32
2024/02/27 09:48:43;;;;;;;15.68;6.72;;;;;;;35.58;64.16;100756.44;5044636;28;65297;-33
2024/02/27 09:51:16;;;;;;;14.05;6.38;;;;;;;35.39;64.21;100723.16;5048833;28;70305;-32
2024/02/27 09:53:50;;;;;;;18.33;7.15;;;;;;;35.21;64.24;100701.69;5043005;28;66621;-31
2024/02/27 09:56:24;;;;;;;8.57;6.63;;;;;;;35.52;65.02;100752.78;5054783;28;70223;-33
2024/02/27 09:58:55;;;;;;;10.90;6.82;;;;;;;35.51;65.01;100751.13;5059730;28;65969;-32
2024/02/27 10:01:30;;;;;;;10.32;7.00;;;;;;;35.50;65.26;100754.94;5044051;28;70407;-32
2024/02/27 10:04:02;;;;;;;9.90;7.03;;;;;;;35.51;64.97;100755.75;5052607;28;67031;-36
2024/02/27 10:06:33;;;;;;;11.18;7.50;;;;;;;35.44;64.85;100755.97;5042972;28;69136;-32
2024/02/27 10:09:09;;;;;;;21.95;8.15;;;;;;;35.26;65.22;100742.66;5043548;28;67518;-32
2024/02/27 10:11:39;;;;;;;17.33;7.50;;;;;;;35.44;65.13;100755.13;5050119;28;69773;-31
2024/02/27 10:14:22;;;;;;;18.15;7.40;;;;;;;35.10;66.33;100726.09;5044370;28;65083;-31
2024/02/27 10:16:54;;;;;;;10.77;6.50;;;;;;;35.41;65.31;100761.09;5055312;28;70429;-32
2024/02/27 10:19:28;;;;;;;17.05;8.15;;;;;;;35.34;65.51;100759.38;5045000;28;66756;-32
2024/02/27 10:22:01;;;;;;;13.27;7.85;;;;;;;35.31;65.88;100767.25;5038829;28;70445;-32
2024/02/27 10:24:32;;;;;;;18.80;7.60;;;;;;;35.27;66.05;100771.56;5040814;28;65629;-33
2024/02/27 10:27:07;;;;;;;12.15;7.25;;;;;;;35.31;65.40;100767.25;5052536;28;69529;-33
2024/02/27 10:29:40;;;;;;;21.60;8.20;;;;;;;35.19;66.07;100763.81;5039679;28;65740;-33
2024/02/27 10:32:18;;;;;;;14.15;7.47;;;;;;;35.05;66.38;100742.34;5040460;28;69336;-34
2024/02/27 10:34:48;;;;;;;10.18;6.82;;;;;;;35.20;66.09;100769.03;5046576;28;65338;-32
2024/02/27 10:37:24;;;;;;;13.13;7.60;;;;;;;35.20;66.00;100779.09;5044350;28;69588;-32
2024/02/27 10:40:00;;;;;;;14.50;7.43;;;;;;;35.20;65.88;100776.38;5054809;28;65802;-32
2024/02/27 10:42:42;;;;;;;20.23;8.30;;;;;;;35.19;65.64;100772.00;5055325;28;70790;-34
2024/02/27 10:45:13;;;;;;;14.25;6.95;;;;;;;35.16;65.68;100791.59;5048086;28;65967;-31
2024/02/27 10:47:45;;;;;;;21.38;8.18;;;;;;;35.16;66.14;100786.13;5040417;28;69091;-31
2024/02/27 10:50:18;;;;;;;12.20;7.22;;;;;;;35.06;66.10;100782.19;5045690;28;65246;-32
2024/02/27 10:52:50;;;;;;;11.50;7.60;;;;;;;35.15;65.08;100801.66;5048702;28;70022;-33
2024/02/27 10:55:25;;;;;;;26.65;8.45;;;;;;;35.06;66.16;100792.28;5048872;28;66771;-31
2024/02/27 10:57:59;;;;;;;10.88;6.40;;;;;;;34.87;65.71;100783.53;5054862;28;70440;-31
2024/02/27 11:00:31;;;;;;;7.90;6.53;;;;;;;35.01;65.81;100812.06;5049801;28;66298;-31
2024/02/27 11:03:07;;;;;;;11.43;7.43;;;;;;;34.97;65.90;100794.56;5053703;28;69545;-32
2024/02/27 11:05:42;;;;;;;16.90;7.32;;;;;;;34.99;66.08;100811.50;5052500;28;65555;-32
2024/02/27 11:08:15;;;;;;;22.63;7.80;;;;;;;34.95;66.77;100823.97;5053640;28;70955;-31
2024/02/27 11:10:47;;;;;;;22.67;8.32;;;;;;;34.92;67.32;100824.47;5048354;28;65337;-32
2024/02/27 11:13:21;;;;;;;14.65;7.25;;;;;;;34.91;67.90;100822.84;5049870;28;70070;-32
2024/02/27 11:15:54;;;;;;;19.67;8.40;;;;;;;34.92;67.55;100813.59;5053701;28;67006;-32
2024/02/27 11:18:34;;;;;;;13.73;7.40;;;;;;;34.57;67.91;100762.91;5050446;28;70325;-33
2024/02/27 11:21:05;;;;;;;13.18;7.60;;;;;;;34.89;68.13;100833.16;5045497;28;66164;-34
2024/02/27 11:23:36;;;;;;;;;;;;;;;34.73;69.92;100836.72;5055616;28;69571;-32
2024/02/27 11:26:07;;;;;;;17.50;7.78;;;;;;;34.80;68.44;100837.34;5047555;28;65693;-32
2024/02/27 11:28:40;;;;;;;21.63;8.18;;;;;;;34.63;68.63;100802.78;5043955;28;69798;-33
2024/02/27 11:31:11;;;;;;;17.80;8.68;;;;;;;34.65;68.96;100830.59;5041955;28;66442;-34
2024/02/27 11:33:46;;;;;;;19.73;8.65;;;;;;;34.67;68.70;100839.34;5043419;28;70384;-31
2024/02/27 11:36:17;;;;;;;9.60;7.28;;;;;;;34.73;68.39;100851.16;5051722;28;66003;-33
2024/02/27 11:38:48;;;;;;;12.02;7.47;;;;;;;34.60;68.36;100849.59;5056820;28;69093;-32
2024/02/27 11:41:23;;;;;;;12.52;8.20;;;;;;;34.65;67.89;100857.00;5050869;28;66424;-31
2024/02/27 11:44:00;;;;;;;12.88;7.20;;;;;;;34.60;68.55;100860.50;5058838;28;68730;-32